createdAt,value
2022-07-29T03:46:53.062Z,100377.62
2022-07-29T03:50:06.220Z,100377.62
2022-07-29T03:53:14.533Z,100384.53
2022-07-29T03:56:21.889Z,100384.44
2022-07-29T03:59:24.843Z,100390.06
2022-07-29T04:02:30.745Z,100392.34
2022-07-29T04:05:34.565Z,100392.66
2022-07-29T04:08:37.133Z,100393.37
2022-07-29T04:12:02.383Z,100394.50
2022-07-29T04:15:06.950Z,100390.91
2022-07-29T04:18:10.023Z,100390.34
2022-07-29T04:21:12.656Z,100401.47
2022-07-29T04:24:16.335Z,100403.72
2022-07-29T04:27:19.148Z,100398.78
2022-07-29T04:30:24.031Z,100393.47
2022-07-29T04:33:27.112Z,100399.50
2022-07-29T04:36:30.273Z,100399.78
2022-07-29T04:39:32.703Z,100395.97
2022-07-29T04:42:35.481Z,100396.66
2022-07-29T04:45:49.015Z,100391.72
2022-07-29T04:48:52.203Z,100394.94
2022-07-29T04:51:54.958Z,100400.66
2022-07-29T04:54:57.842Z,100401.22
2022-07-29T04:58:00.446Z,100398.19
2022-07-29T05:01:04.836Z,100396.03
2022-07-29T05:04:07.721Z,100400.06
2022-07-29T05:07:10.653Z,100405.97
2022-07-29T05:10:13.106Z,100403.84
2022-07-29T05:13:17.114Z,100403.16
2022-07-29T05:16:19.649Z,100405.53
2022-07-29T05:19:22.624Z,100407.25
2022-07-29T05:22:25.183Z,100396.09
2022-07-29T05:25:43.470Z,100400.56
2022-07-29T05:28:47.141Z,100400.44
2022-07-29T05:31:49.985Z,100398.31
2022-07-29T05:34:52.561Z,100400.97
2022-07-29T05:37:55.266Z,100408.25
2022-07-29T05:41:00.175Z,100408.31
2022-07-29T05:44:03.269Z,100405.00
2022-07-29T05:47:06.136Z,100406.87
2022-07-29T05:50:09.753Z,100405.22
2022-07-29T05:53:19.597Z,100414.34
2022-07-29T05:56:23.600Z,100413.72
2022-07-29T05:59:30.166Z,100408.53
2022-07-29T06:02:33.250Z,100415.78
2022-07-29T06:05:36.285Z,100413.63
2022-07-29T06:08:39.484Z,100415.31
2022-07-29T06:11:42.587Z,100419.75
2022-07-29T06:14:45.125Z,100418.25
2022-07-29T06:18:00.207Z,100416.09
2022-07-29T06:21:09.610Z,100423.16
2022-07-29T06:24:14.044Z,100422.31
2022-07-29T06:27:17.340Z,100415.75
2022-07-29T06:30:20.315Z,100425.03
2022-07-29T06:33:22.791Z,100425.25
2022-07-29T06:36:25.974Z,100421.69
2022-07-29T06:39:28.959Z,100427.91
2022-07-29T06:42:32.069Z,100432.97
2022-07-29T06:45:35.778Z,100432.28
2022-07-29T06:48:40.063Z,100434.09
2022-07-29T06:51:42.637Z,100432.88
2022-07-29T06:54:49.025Z,100436.84
2022-07-29T06:57:51.647Z,100435.75
2022-07-29T07:00:55.077Z,100439.38
2022-07-29T07:03:57.755Z,100437.25
2022-07-29T07:07:01.533Z,100430.91
2022-07-29T07:10:04.693Z,100431.03
2022-07-29T07:13:09.904Z,100428.06
2022-07-29T07:16:13.672Z,100437.03
2022-07-29T07:19:16.601Z,100429.22
2022-07-29T07:22:19.173Z,100422.53
2022-07-29T07:25:24.986Z,100418.44
2022-07-29T07:28:27.535Z,100427.84
2022-07-29T07:31:30.534Z,100422.78
2022-07-29T07:34:33.169Z,100419.72
2022-07-29T07:37:36.771Z,100425.09
2022-07-29T07:40:39.484Z,100425.16
2022-07-29T07:43:42.339Z,100423.69
2022-07-29T07:46:45.950Z,100427.63
2022-07-29T07:49:48.823Z,100414.81
2022-07-29T07:52:54.113Z,100412.28
2022-07-29T07:56:13.063Z,100428.59
2022-07-29T07:59:15.809Z,100417.38
2022-07-29T08:02:18.736Z,100416.91
2022-07-29T08:05:21.814Z,100414.06
2022-07-29T08:08:24.447Z,100414.53
2022-07-29T08:11:27.383Z,100416.72
2022-07-29T08:14:33.772Z,100405.00
2022-07-29T08:17:36.720Z,100415.31
2022-07-29T08:20:39.994Z,100409.87
2022-07-29T08:23:58.937Z,100415.56
2022-07-29T08:27:03.463Z,100406.84
2022-07-29T08:30:08.150Z,100408.66
2022-07-29T08:33:10.900Z,100404.03
2022-07-29T08:36:14.202Z,100407.22
2022-07-29T08:39:17.002Z,100409.97
2022-07-29T08:42:20.148Z,100405.53
2022-07-29T08:45:24.806Z,100406.59
2022-07-29T08:48:27.750Z,100398.19
2022-07-29T08:51:49.267Z,100404.53
2022-07-29T08:54:56.251Z,100399.53
2022-07-29T08:57:59.667Z,100390.41
2022-07-29T09:01:03.951Z,100388.22
2022-07-29T09:04:12.960Z,100391.66
2022-07-29T09:07:17.288Z,100391.50
2022-07-29T09:10:19.997Z,100386.31
2022-07-29T09:13:23.648Z,100384.62
2022-07-29T09:16:50.806Z,100383.78
2022-07-29T09:19:49.299Z,100382.81
2022-07-29T09:22:56.507Z,100380.56
2022-07-29T09:26:06.992Z,100379.72
2022-07-29T09:29:15.177Z,100375.53
2022-07-29T09:32:17.966Z,100373.22
2022-07-29T09:35:23.991Z,100373.41
2022-07-29T09:38:26.879Z,100365.16
2022-07-29T09:41:30.008Z,100359.50
2022-07-29T09:44:47.701Z,100365.06
2022-07-29T09:47:50.405Z,100364.66
2022-07-29T09:50:53.562Z,100356.22
2022-07-29T09:53:56.675Z,100352.16
2022-07-29T09:56:59.472Z,100352.56
2022-07-29T10:00:07.950Z,100349.31
2022-07-29T10:03:16.683Z,100344.41
2022-07-29T10:06:19.662Z,100346.00
2022-07-29T10:09:22.452Z,100341.03
2022-07-29T10:12:25.520Z,100344.78
2022-07-29T10:15:30.818Z,100335.69
2022-07-29T10:18:35.200Z,100331.41
2022-07-29T10:21:40.738Z,100337.75
2022-07-29T10:24:43.723Z,100342.22
2022-07-29T10:27:48.503Z,100326.50
2022-07-29T10:30:53.684Z,100323.34
2022-07-29T10:34:14.734Z,100325.81
2022-07-29T10:37:45.900Z,100321.59
2022-07-29T10:41:27.597Z,100318.84
2022-07-29T10:44:35.476Z,100318.19
2022-07-29T10:47:38.161Z,100317.00
2022-07-29T10:50:57.905Z,100319.00
2022-07-29T10:54:05.272Z,100311.00
2022-07-29T10:57:17.384Z,100307.41
2022-07-29T11:00:31.469Z,100299.22
2022-07-29T11:03:53.513Z,100301.34
2022-07-29T11:07:05.513Z,100284.47
2022-07-29T11:10:14.503Z,100289.78
2022-07-29T11:13:47.244Z,100290.72
2022-07-29T11:17:05.968Z,100288.50
2022-07-29T11:20:36.545Z,100293.72
2022-07-29T11:23:43.342Z,100287.22
2022-07-29T11:27:31.729Z,100286.62
2022-07-29T11:30:52.167Z,100281.31
2022-07-29T11:33:56.943Z,100275.66
2022-07-29T11:37:12.591Z,100276.56
2022-07-29T11:40:16.602Z,100274.97
2022-07-29T11:43:50.618Z,100270.50
2022-07-29T11:46:54.288Z,100264.00
2022-07-29T11:49:59.834Z,100255.16
2022-07-29T11:53:13.574Z,100251.81
2022-07-29T11:56:22.021Z,100251.84
2022-07-29T11:59:33.129Z,100256.78
2022-07-29T12:02:48.558Z,100256.84
2022-07-29T12:05:52.097Z,100248.38
2022-07-29T12:08:54.741Z,100251.66
2022-07-29T12:12:04.648Z,100257.91
2022-07-29T12:15:13.176Z,100250.03
2022-07-29T12:18:18.925Z,100239.69
2022-07-29T12:21:21.515Z,100238.22
2022-07-29T12:24:43.636Z,100233.41
2022-07-29T12:27:48.439Z,100230.03
2022-07-29T12:30:52.531Z,100223.97
2022-07-29T12:33:55.335Z,100225.38
2022-07-29T12:37:01.911Z,100215.78
2022-07-29T12:40:06.257Z,100209.22
2022-07-29T12:43:17.412Z,100206.56
2022-07-29T12:46:20.071Z,100196.63
2022-07-29T12:49:23.992Z,100191.22
2022-07-29T12:52:32.075Z,100187.69
2022-07-29T12:55:55.424Z,100181.22
2022-07-29T12:58:58.469Z,100172.13
2022-07-29T13:02:01.569Z,100181.88
2022-07-29T13:05:06.337Z,100184.09
2022-07-29T13:08:21.878Z,100179.34
2022-07-29T13:11:36.644Z,100177.94
2022-07-29T13:14:51.140Z,100172.66
2022-07-29T13:17:53.942Z,100156.94
2022-07-29T13:20:58.009Z,100147.41
2022-07-29T13:24:00.906Z,100143.75
2022-07-29T13:27:05.515Z,100150.19
2022-07-29T13:30:10.694Z,100141.53
2022-07-29T13:33:15.061Z,100152.41
2022-07-29T13:36:17.955Z,100147.22
2022-07-29T13:39:20.757Z,100137.97
2022-07-29T13:42:24.236Z,100139.22
2022-07-29T13:45:29.240Z,100112.03
2022-07-29T13:48:31.945Z,100098.09
2022-07-29T13:51:34.822Z,100083.69
2022-07-29T13:54:42.022Z,100085.91
2022-07-29T13:57:45.362Z,100083.03
2022-07-29T14:00:48.331Z,100093.41
2022-07-29T14:03:51.418Z,100097.66
2022-07-29T14:06:54.039Z,100103.62
2022-07-29T14:09:57.870Z,100096.88
2022-07-29T14:13:00.454Z,100077.94
2022-07-29T14:16:03.524Z,100062.81
2022-07-29T14:19:06.996Z,100061.41
2022-07-29T14:22:10.961Z,100054.34
2022-07-29T14:25:15.565Z,100068.59
2022-07-29T14:28:18.736Z,100064.69
2022-07-29T14:31:21.454Z,100073.66
2022-07-29T14:34:24.469Z,100082.19
2022-07-29T14:37:26.980Z,100075.88
2022-07-29T14:40:30.135Z,100077.91
2022-07-29T14:43:32.992Z,100074.09
2022-07-29T14:46:36.164Z,100063.59
2022-07-29T14:49:38.773Z,100057.19
2022-07-29T14:52:41.682Z,100053.56
2022-07-29T14:55:45.285Z,100064.41
2022-07-29T14:58:49.085Z,100065.75
2022-07-29T15:01:54.939Z,100037.78
2022-07-29T15:04:58.012Z,100033.87
2022-07-29T15:08:00.756Z,100027.56
2022-07-29T15:11:03.614Z,100027.44
2022-07-29T15:14:07.257Z,100027.34
